createdAt,value
2023-01-27T00:00:53.621Z,49.65
2023-01-27T00:03:21.754Z,49.85
2023-01-27T00:05:49.758Z,49.83
2023-01-27T00:08:17.980Z,49.72
2023-01-27T00:10:46.079Z,49.69
2023-01-27T00:13:28.558Z,49.73
2023-01-27T00:15:57.950Z,49.66
2023-01-27T00:18:25.913Z,49.79
2023-01-27T00:21:11.541Z,49.64
2023-01-27T00:23:56.954Z,49.80
2023-01-27T00:26:24.982Z,49.97
2023-01-27T00:28:52.899Z,50.01
2023-01-27T00:31:40.044Z,49.85
2023-01-27T00:34:10.174Z,50.11
2023-01-27T00:36:38.318Z,49.91
2023-01-27T00:39:06.301Z,49.96
2023-01-27T00:41:34.931Z,50.23
2023-01-27T00:44:03.009Z,50.07
2023-01-27T00:46:32.435Z,50.25
2023-01-27T00:49:00.438Z,50.07
2023-01-27T00:51:28.398Z,50.19
2023-01-27T00:53:56.327Z,50.30
2023-01-27T00:56:24.255Z,50.30
2023-01-27T00:58:52.196Z,50.29
2023-01-27T01:01:20.090Z,50.28
2023-01-27T01:03:49.468Z,50.04
2023-01-27T01:06:17.844Z,50.07
2023-01-27T01:08:45.805Z,50.21
2023-01-27T01:11:14.851Z,50.27
2023-01-27T01:13:42.894Z,50.19
2023-01-27T01:16:12.037Z,50.15
2023-01-27T01:18:40.153Z,50.00
2023-01-27T01:21:09.571Z,50.00
2023-01-27T01:23:39.355Z,50.08
2023-01-27T01:26:07.310Z,50.02
2023-01-27T01:28:35.375Z,50.11
2023-01-27T01:31:07.354Z,50.16
2023-01-27T01:33:35.437Z,50.16
2023-01-27T01:36:07.624Z,50.12
2023-01-27T01:38:36.933Z,50.24
2023-01-27T01:41:05.205Z,50.37
2023-01-27T01:43:33.146Z,50.31
2023-01-27T01:46:01.467Z,50.38
2023-01-27T01:48:34.437Z,50.33
2023-01-27T01:51:05.999Z,50.58
2023-01-27T01:53:38.079Z,50.50
2023-01-27T01:56:08.989Z,50.57
2023-01-27T01:58:36.957Z,50.66
2023-01-27T02:01:05.736Z,50.55
2023-01-27T02:03:34.024Z,50.57
2023-01-27T02:06:01.950Z,50.83
2023-01-27T02:08:31.900Z,50.75
2023-01-27T02:11:01.503Z,50.79
2023-01-27T02:13:29.406Z,50.69
2023-01-27T02:15:57.355Z,50.79
2023-01-27T02:18:25.408Z,50.74
2023-01-27T02:20:54.291Z,50.96
2023-01-27T02:23:34.551Z,50.93
2023-01-27T02:26:06.557Z,50.94
2023-01-27T02:28:34.494Z,51.07
2023-01-27T02:31:02.589Z,51.06
2023-01-27T02:33:30.656Z,51.13
2023-01-27T02:36:01.001Z,51.08
2023-01-27T02:38:29.482Z,51.23
2023-01-27T02:40:59.056Z,51.24
2023-01-27T02:43:28.472Z,51.26
2023-01-27T02:45:56.452Z,51.19
2023-01-27T02:48:24.386Z,51.34
2023-01-27T02:50:52.349Z,51.43
2023-01-27T02:53:20.336Z,51.38
2023-01-27T02:55:48.300Z,51.40
2023-01-27T02:58:16.510Z,51.43
2023-01-27T03:00:45.834Z,51.42
2023-01-27T03:03:13.749Z,51.66
2023-01-27T03:05:42.015Z,51.50
2023-01-27T03:08:09.987Z,51.39
2023-01-27T03:10:37.949Z,51.44
2023-01-27T03:13:06.193Z,51.28
2023-01-27T03:15:51.326Z,51.29
2023-01-27T03:18:22.557Z,51.27
2023-01-27T03:20:50.644Z,50.99
2023-01-27T03:23:20.221Z,51.05
2023-01-27T03:25:49.173Z,50.93
2023-01-27T03:28:17.194Z,51.00
2023-01-27T03:30:45.209Z,50.86
2023-01-27T03:33:13.233Z,50.67
2023-01-27T03:35:48.567Z,50.80
2023-01-27T03:38:34.507Z,50.77
2023-01-27T03:41:21.339Z,50.87
2023-01-27T03:44:06.756Z,50.85
2023-01-27T03:46:34.717Z,50.79
2023-01-27T03:49:02.692Z,50.69
2023-01-27T03:51:31.997Z,50.72
2023-01-27T03:54:01.004Z,50.72
2023-01-27T03:56:28.992Z,50.67
2023-01-27T03:58:57.807Z,50.41
2023-01-27T04:01:25.899Z,50.58
2023-01-27T04:04:11.598Z,50.52
2023-01-27T04:06:53.462Z,50.72
2023-01-27T04:09:22.518Z,50.71
2023-01-27T04:11:55.392Z,50.50
2023-01-27T04:14:24.472Z,50.54
2023-01-27T04:16:53.364Z,50.51
2023-01-27T04:19:21.359Z,50.63
2023-01-27T04:21:51.018Z,50.59
2023-01-27T04:24:22.584Z,50.61
2023-01-27T04:26:53.202Z,50.70
2023-01-27T04:29:21.303Z,50.91
2023-01-27T04:31:49.378Z,50.65
2023-01-27T04:34:17.596Z,50.74
2023-01-27T04:36:45.627Z,50.71
2023-01-27T04:39:15.475Z,50.79
2023-01-27T04:41:43.661Z,50.79
2023-01-27T04:44:11.587Z,50.73
2023-01-27T04:46:39.599Z,50.75
2023-01-27T04:49:07.713Z,50.81
2023-01-27T04:51:35.802Z,50.73
2023-01-27T04:54:05.596Z,50.77
2023-01-27T04:56:35.733Z,50.84
2023-01-27T04:59:04.620Z,50.90
2023-01-27T05:01:32.600Z,50.89
2023-01-27T05:04:00.578Z,50.92
2023-01-27T05:06:28.551Z,50.98
2023-01-27T05:08:57.258Z,50.84
2023-01-27T05:11:25.143Z,50.67
2023-01-27T05:13:54.434Z,50.61
2023-01-27T05:16:23.687Z,50.77
2023-01-27T05:18:52.599Z,50.86
2023-01-27T05:21:21.413Z,50.92
2023-01-27T05:23:49.711Z,51.03
2023-01-27T05:26:19.189Z,50.97
2023-01-27T05:28:48.027Z,51.03
2023-01-27T05:31:19.026Z,50.90
2023-01-27T05:33:47.259Z,51.03
2023-01-27T05:36:16.094Z,51.01
2023-01-27T05:38:44.139Z,51.10
2023-01-27T05:41:12.807Z,51.01
2023-01-27T05:43:41.910Z,50.93
2023-01-27T05:46:10.722Z,50.86
2023-01-27T05:48:42.845Z,50.71
2023-01-27T05:51:13.519Z,50.71
2023-01-27T05:53:42.710Z,50.52
2023-01-27T05:56:11.735Z,50.46
2023-01-27T05:58:39.747Z,50.34
2023-01-27T06:01:08.550Z,50.19
2023-01-27T06:03:36.574Z,50.18
2023-01-27T06:06:06.810Z,50.16
2023-01-27T06:08:35.006Z,50.10
2023-01-27T06:11:03.136Z,49.99
2023-01-27T06:13:31.282Z,49.98
2023-01-27T06:15:59.465Z,49.83
2023-01-27T06:18:27.412Z,49.85
2023-01-27T06:20:58.627Z,49.82
2023-01-27T06:23:28.364Z,49.83
2023-01-27T06:25:56.536Z,49.63
2023-01-27T06:28:29.183Z,49.75
2023-01-27T06:30:57.958Z,49.68
2023-01-27T06:33:25.938Z,49.58
2023-01-27T06:35:53.895Z,49.29
2023-01-27T06:38:21.849Z,49.30
2023-01-27T06:40:51.160Z,49.39
2023-01-27T06:43:19.109Z,49.25
2023-01-27T06:45:47.086Z,49.25
2023-01-27T06:48:15.082Z,49.27
2023-01-27T06:50:43.042Z,49.16
2023-01-27T06:53:11.107Z,49.25
2023-01-27T06:55:41.691Z,49.15
2023-01-27T06:58:11.521Z,49.30
2023-01-27T07:00:39.824Z,49.30
2023-01-27T07:03:07.872Z,49.27
2023-01-27T07:05:35.827Z,49.17
2023-01-27T07:08:03.804Z,49.21
2023-01-27T07:10:31.778Z,49.34
2023-01-27T07:13:06.084Z,49.25
2023-01-27T07:15:35.557Z,49.32
2023-01-27T07:18:03.622Z,49.24
2023-01-27T07:20:31.756Z,49.35
2023-01-27T07:23:00.112Z,49.14
2023-01-27T07:25:28.160Z,49.35
2023-01-27T07:27:58.031Z,49.45
2023-01-27T07:30:26.004Z,49.38
2023-01-27T07:32:55.629Z,49.51
2023-01-27T07:35:23.646Z,49.44
2023-01-27T07:37:51.608Z,49.34
2023-01-27T07:40:20.451Z,49.35
2023-01-27T07:42:48.458Z,49.41
2023-01-27T07:45:16.435Z,49.46
2023-01-27T07:47:44.412Z,49.47
2023-01-27T07:50:14.319Z,49.63
2023-01-27T07:52:42.421Z,49.62
2023-01-27T07:55:11.072Z,49.71
2023-01-27T07:57:39.117Z,49.81
2023-01-27T08:00:08.246Z,49.64
2023-01-27T08:02:36.317Z,49.85
2023-01-27T08:05:04.398Z,49.78
2023-01-27T08:07:33.766Z,49.74
2023-01-27T08:10:01.725Z,49.81
2023-01-27T08:12:30.208Z,49.73
2023-01-27T08:14:58.162Z,49.71
2023-01-27T08:17:26.129Z,49.75
2023-01-27T08:19:54.087Z,49.82
2023-01-27T08:22:24.641Z,49.72
2023-01-27T08:24:53.990Z,49.83
2023-01-27T08:27:21.945Z,49.71
2023-01-27T08:29:51.150Z,49.55
2023-01-27T08:32:19.121Z,49.69
2023-01-27T08:34:47.090Z,49.50
2023-01-27T08:37:15.036Z,49.62
2023-01-27T08:39:43.119Z,49.64
2023-01-27T08:42:12.994Z,49.51
2023-01-27T08:44:40.968Z,49.66
2023-01-27T08:47:08.998Z,49.72
2023-01-27T08:49:36.958Z,49.70
2023-01-27T08:52:05.181Z,49.69
2023-01-27T08:54:33.174Z,49.61
2023-01-27T08:57:01.123Z,49.69
2023-01-27T08:59:30.575Z,49.69
2023-01-27T09:01:58.596Z,49.55
2023-01-27T09:04:26.682Z,49.58
2023-01-27T09:06:54.701Z,49.49
2023-01-27T09:09:22.625Z,49.55
2023-01-27T09:11:50.633Z,49.67
2023-01-27T09:14:20.004Z,49.64
2023-01-27T09:16:49.308Z,49.68
2023-01-27T09:19:17.400Z,49.72
2023-01-27T09:21:45.510Z,49.76
2023-01-27T09:24:17.772Z,49.74
2023-01-27T09:26:46.447Z,49.81
2023-01-27T09:29:14.421Z,49.88
2023-01-27T09:31:42.647Z,49.89
2023-01-27T09:34:12.263Z,49.94
2023-01-27T09:36:43.437Z,49.79
2023-01-27T09:39:11.418Z,49.81
2023-01-27T09:41:56.937Z,49.88
2023-01-27T09:44:56.117Z,49.42
2023-01-27T09:47:43.789Z,49.27
2023-01-27T09:50:29.145Z,49.17
2023-01-27T09:53:25.567Z,49.40
2023-01-27T09:55:55.211Z,49.68
2023-01-27T09:58:26.846Z,49.66
2023-01-27T10:00:58.982Z,49.85
2023-01-27T10:03:33.877Z,50.10
2023-01-27T10:06:17.073Z,50.23
2023-01-27T10:09:04.005Z,50.23
2023-01-27T10:11:35.609Z,50.21
2023-01-27T10:14:11.080Z,49.78
2023-01-27T10:16:55.341Z,49.74
2023-01-27T10:19:33.286Z,49.45
2023-01-27T10:22:08.091Z,49.10
2023-01-27T10:24:42.679Z,48.78
2023-01-27T10:27:14.553Z,48.90
2023-01-27T10:29:45.640Z,49.29
2023-01-27T10:32:19.523Z,49.41
2023-01-27T10:34:49.538Z,49.50
2023-01-27T10:37:22.150Z,49.63
2023-01-27T10:39:52.525Z,49.69
2023-01-27T10:42:26.201Z,49.44
2023-01-27T10:45:11.181Z,49.44
2023-01-27T10:47:47.717Z,49.22
2023-01-27T10:50:16.954Z,49.64
2023-01-27T10:52:48.523Z,49.63
2023-01-27T10:55:17.859Z,49.50
2023-01-27T10:57:47.674Z,49.59
2023-01-27T11:03:07.949Z,49.05
2023-01-27T11:05:37.564Z,48.88
2023-01-27T11:08:09.100Z,48.81
2023-01-27T11:10:38.300Z,48.61
2023-01-27T11:13:06.420Z,48.09
2023-01-27T11:15:34.856Z,48.45
2023-01-27T11:18:05.078Z,48.56
2023-01-27T11:20:35.244Z,48.83
2023-01-27T11:23:05.396Z,49.10
2023-01-27T11:25:43.339Z,49.13
2023-01-27T11:28:19.315Z,49.26
2023-01-27T11:30:50.046Z,49.53
2023-01-27T11:33:20.569Z,49.60
2023-01-27T11:35:54.526Z,49.24
2023-01-27T11:38:23.457Z,49.26
2023-01-27T11:40:53.169Z,49.87
2023-01-27T11:43:22.372Z,49.91
2023-01-27T11:45:50.309Z,50.21
2023-01-27T11:48:18.459Z,52.88
2023-01-27T11:50:46.479Z,53.88
2023-01-27T11:53:18.459Z,52.77
2023-01-27T11:55:48.419Z,51.67
2023-01-27T11:58:22.559Z,50.86
2023-01-27T12:03:23.419Z,50.41
2023-01-27T12:05:55.347Z,50.24
2023-01-27T12:08:40.421Z,48.17
2023-01-27T12:11:22.222Z,47.29
2023-01-27T12:13:53.045Z,46.60
2023-01-27T12:16:21.050Z,46.43
2023-01-27T12:18:52.189Z,46.28
2023-01-27T12:21:20.155Z,46.69
2023-01-27T12:23:49.251Z,46.72
2023-01-27T12:26:17.267Z,46.66
2023-01-27T12:28:50.615Z,46.73
2023-01-27T12:31:21.470Z,46.97
2023-01-27T12:33:52.490Z,46.73
2023-01-27T12:36:23.244Z,46.99
2023-01-27T12:38:52.618Z,47.15
2023-01-27T12:41:24.974Z,47.44
2023-01-27T12:43:53.701Z,47.29
2023-01-27T12:46:24.031Z,47.35
2023-01-27T12:48:52.551Z,47.29
2023-01-27T12:51:22.474Z,47.33
2023-01-27T12:53:50.723Z,47.52
2023-01-27T12:56:20.189Z,47.88
2023-01-27T12:58:52.206Z,47.99
2023-01-27T13:01:30.174Z,48.05
2023-01-27T13:03:59.739Z,48.16
2023-01-27T13:06:33.705Z,48.41
2023-01-27T13:09:01.699Z,48.50
2023-01-27T13:11:34.982Z,48.56
2023-01-27T13:14:02.907Z,48.57
2023-01-27T13:16:32.319Z,48.72
2023-01-27T13:19:01.309Z,48.54
2023-01-27T13:21:31.164Z,48.74
2023-01-27T13:23:59.237Z,48.47
2023-01-27T13:26:28.720Z,48.47
2023-01-27T13:28:58.211Z,48.38
2023-01-27T13:31:35.855Z,48.40
2023-01-27T13:34:05.892Z,48.18
2023-01-27T13:36:36.811Z,48.33
2023-01-27T13:39:07.759Z,48.38
2023-01-27T13:41:38.146Z,48.53
2023-01-27T13:44:11.242Z,48.21
2023-01-27T13:46:40.668Z,47.34
2023-01-27T13:49:17.526Z,47.15
2023-01-27T13:51:45.438Z,46.91
2023-01-27T13:54:13.741Z,47.09
2023-01-27T13:56:49.250Z,47.32
2023-01-27T13:59:33.081Z,46.88
2023-01-27T14:02:09.119Z,46.31
2023-01-27T14:04:57.131Z,46.08
2023-01-27T14:07:27.602Z,45.76
2023-01-27T14:10:03.130Z,45.85
2023-01-27T14:12:41.267Z,45.57
2023-01-27T14:15:17.091Z,45.19
2023-01-27T14:17:48.141Z,45.32
2023-01-27T14:20:24.731Z,45.63
2023-01-27T14:22:57.706Z,47.24
2023-01-27T14:25:28.768Z,46.72
2023-01-27T14:27:58.524Z,44.13
2023-01-27T14:30:28.118Z,43.13
2023-01-27T14:32:59.855Z,42.85
2023-01-27T14:35:32.211Z,43.33
2023-01-27T14:38:06.741Z,43.50
2023-01-27T14:40:37.050Z,43.49
2023-01-27T14:43:19.688Z,44.01
2023-01-27T14:45:49.269Z,44.09
2023-01-27T14:48:26.443Z,44.02
2023-01-27T14:50:58.716Z,43.95
2023-01-27T14:53:40.913Z,44.13
2023-01-27T14:56:12.794Z,44.08
2023-01-27T14:58:47.581Z,44.32
2023-01-27T15:01:23.861Z,44.71
2023-01-27T15:04:20.464Z,45.01
2023-01-27T15:06:48.984Z,44.68
2023-01-27T15:09:39.789Z,44.10
2023-01-27T15:12:17.016Z,43.59
2023-01-27T15:15:21.290Z,44.01
2023-01-27T15:17:56.861Z,44.09
2023-01-27T15:20:31.655Z,44.01
2023-01-27T15:23:05.904Z,44.32
2023-01-27T15:25:34.358Z,44.58
2023-01-27T15:28:02.319Z,44.92
2023-01-27T15:30:31.292Z,45.03
2023-01-27T15:32:59.229Z,45.20
2023-01-27T15:35:41.164Z,45.33
2023-01-27T15:38:23.023Z,45.39
2023-01-27T15:40:57.492Z,45.54
2023-01-27T15:43:25.687Z,45.71
2023-01-27T15:45:55.498Z,45.88
2023-01-27T15:48:24.213Z,45.97
2023-01-27T15:50:56.015Z,45.89
2023-01-27T15:53:27.671Z,45.89
2023-01-27T15:55:55.970Z,46.06
2023-01-27T15:58:26.016Z,46.34
2023-01-27T16:00:54.574Z,46.34
2023-01-27T16:03:25.454Z,46.30
2023-01-27T16:05:56.569Z,46.43
2023-01-27T16:08:24.504Z,46.62
2023-01-27T16:10:52.493Z,46.50
2023-01-27T16:13:24.870Z,46.60
2023-01-27T16:16:23.306Z,46.65
2023-01-27T16:18:53.571Z,46.82
2023-01-27T16:21:34.445Z,46.89
2023-01-27T16:24:04.409Z,46.99
2023-01-27T16:26:33.952Z,47.23
2023-01-27T16:29:12.525Z,46.79
2023-01-27T16:31:41.680Z,46.95
2023-01-27T16:34:16.191Z,46.83
2023-01-27T16:36:45.469Z,47.01
2023-01-27T16:39:25.461Z,47.02
2023-01-27T16:41:54.865Z,47.11
2023-01-27T16:44:23.674Z,47.06
2023-01-27T16:46:52.417Z,46.76
2023-01-27T16:49:22.982Z,47.06
2023-01-27T16:51:56.861Z,46.69
2023-01-27T16:54:26.541Z,46.72
2023-01-27T16:56:54.529Z,46.56
2023-01-27T16:59:23.521Z,46.64
2023-01-27T17:01:51.698Z,46.74
2023-01-27T17:04:21.186Z,46.62
2023-01-27T17:06:49.437Z,46.63
2023-01-27T17:09:23.361Z,46.64
2023-01-27T17:11:51.314Z,46.63
2023-01-27T17:14:30.375Z,46.33
2023-01-27T17:16:59.380Z,46.25
2023-01-27T17:19:29.742Z,46.38
2023-01-27T17:21:58.672Z,46.49
2023-01-27T17:24:29.000Z,46.46
2023-01-27T17:26:59.837Z,46.70
2023-01-27T17:29:29.953Z,46.86
2023-01-27T17:31:58.027Z,46.87
2023-01-27T17:34:25.997Z,46.94
2023-01-27T17:37:07.332Z,47.21
2023-01-27T17:39:36.765Z,47.17
2023-01-27T17:42:05.781Z,47.04
2023-01-27T17:44:33.935Z,47.31
2023-01-27T17:47:02.102Z,47.07
2023-01-27T17:49:30.004Z,47.24
2023-01-27T17:51:58.837Z,47.32
2023-01-27T17:54:27.812Z,47.59
2023-01-27T17:57:02.063Z,47.70
2023-01-27T17:59:29.985Z,47.88
2023-01-27T18:02:00.740Z,48.08
2023-01-27T18:04:28.678Z,48.06
2023-01-27T18:06:56.606Z,48.01
2023-01-27T18:09:26.676Z,48.03
2023-01-27T18:11:56.564Z,47.98
2023-01-27T18:14:25.953Z,48.16
2023-01-27T18:17:03.725Z,48.11
2023-01-27T18:19:31.708Z,48.18
2023-01-27T18:22:04.460Z,48.31
2023-01-27T18:24:33.273Z,48.34
2023-01-27T18:27:01.213Z,48.27
2023-01-27T18:29:32.329Z,48.41
2023-01-27T18:32:00.831Z,48.72
2023-01-27T18:34:29.653Z,48.38
2023-01-27T18:36:58.799Z,48.48
2023-01-27T18:39:30.221Z,48.45
2023-01-27T18:41:58.084Z,48.52
2023-01-27T18:44:34.420Z,48.58
2023-01-27T18:47:28.300Z,48.95
2023-01-27T18:49:59.807Z,48.95
2023-01-27T18:52:27.786Z,49.21
2023-01-27T18:54:56.770Z,49.22
2023-01-27T18:57:24.714Z,49.12
2023-01-27T18:59:52.639Z,49.29
2023-01-27T19:02:22.052Z,49.19
2023-01-27T19:04:50.110Z,49.29
2023-01-27T19:07:18.771Z,49.40
2023-01-27T19:09:47.465Z,49.27
2023-01-27T19:12:15.399Z,49.28
2023-01-27T19:14:43.578Z,49.29
2023-01-27T19:17:18.031Z,49.22
2023-01-27T19:19:47.648Z,49.20
2023-01-27T19:22:16.940Z,49.16
2023-01-27T19:24:45.518Z,49.37
2023-01-27T19:27:14.077Z,49.45
2023-01-27T19:29:42.060Z,49.29
2023-01-27T19:32:12.394Z,49.26
2023-01-27T19:34:40.311Z,49.39
2023-01-27T19:37:16.390Z,49.22
2023-01-27T19:39:45.060Z,49.27
2023-01-27T19:42:13.037Z,49.47
2023-01-27T19:44:40.926Z,49.37
2023-01-27T19:47:11.990Z,49.49
2023-01-27T19:49:39.895Z,49.53
2023-01-27T19:52:07.816Z,49.67
2023-01-27T19:54:37.151Z,49.70
2023-01-27T19:57:05.089Z,49.70
2023-01-27T19:59:33.068Z,49.56
2023-01-27T20:02:01.081Z,49.48
2023-01-27T20:04:29.143Z,49.48
2023-01-27T20:06:57.082Z,49.52
2023-01-27T20:09:25.062Z,49.49
2023-01-27T20:11:54.385Z,49.53
2023-01-27T20:14:25.808Z,49.49
2023-01-27T20:16:53.756Z,49.42
2023-01-27T20:19:21.694Z,49.51
2023-01-27T20:21:49.845Z,49.54
2023-01-27T20:24:18.267Z,49.60
2023-01-27T20:26:46.368Z,49.48
2023-01-27T20:29:15.705Z,49.57
2023-01-27T20:31:43.745Z,49.50
2023-01-27T20:34:11.811Z,49.47
2023-01-27T20:36:39.734Z,49.59
2023-01-27T20:39:07.717Z,49.53
2023-01-27T20:41:35.677Z,49.51
2023-01-27T20:44:03.625Z,49.61
2023-01-27T20:46:33.009Z,49.52
2023-01-27T20:49:01.343Z,49.66
2023-01-27T20:51:29.692Z,49.68
2023-01-27T20:54:00.130Z,49.56
2023-01-27T20:56:28.244Z,49.65
2023-01-27T20:58:56.142Z,49.74
2023-01-27T21:01:24.470Z,49.64
2023-01-27T21:03:53.835Z,49.80
2023-01-27T21:06:21.857Z,49.87
2023-01-27T21:08:50.246Z,49.83
2023-01-27T21:11:18.761Z,49.82
2023-01-27T21:13:47.075Z,49.88
2023-01-27T21:16:15.029Z,49.79
2023-01-27T21:18:44.076Z,49.87
2023-01-27T21:21:21.984Z,49.80
2023-01-27T21:23:49.957Z,49.89
2023-01-27T21:26:17.981Z,49.76
2023-01-27T21:28:46.010Z,49.91
2023-01-27T21:31:18.195Z,49.89
2023-01-27T21:33:48.054Z,49.86
2023-01-27T21:36:17.560Z,49.96
2023-01-27T21:38:45.496Z,49.86
2023-01-27T21:41:34.943Z,49.80
2023-01-27T21:44:20.144Z,49.93
2023-01-27T21:46:48.167Z,49.94
2023-01-27T21:49:16.126Z,49.87
2023-01-27T21:51:45.395Z,49.78
2023-01-27T21:54:13.295Z,49.82
2023-01-27T21:56:41.209Z,49.77
2023-01-27T21:59:09.333Z,49.86
2023-01-27T22:01:37.248Z,49.82
2023-01-27T22:04:05.313Z,49.86
2023-01-27T22:06:33.675Z,49.70
2023-01-27T22:09:03.084Z,49.79
2023-01-27T22:11:30.995Z,49.91
2023-01-27T22:13:58.887Z,49.82
2023-01-27T22:16:27.086Z,49.86
2023-01-27T22:18:55.082Z,50.07
2023-01-27T22:21:23.014Z,49.87
2023-01-27T22:23:51.009Z,49.82
2023-01-27T22:26:20.769Z,49.84
2023-01-27T22:28:48.726Z,49.81
2023-01-27T22:31:16.659Z,49.74
2023-01-27T22:33:44.562Z,49.77
2023-01-27T22:36:12.485Z,49.82
2023-01-27T22:38:40.458Z,49.79
2023-01-27T22:41:08.346Z,49.72
2023-01-27T22:43:47.484Z,49.60
2023-01-27T22:46:15.432Z,49.62
2023-01-27T22:48:43.365Z,49.57
2023-01-27T22:51:11.317Z,49.69
2023-01-27T22:53:39.252Z,49.63
2023-01-27T22:56:08.262Z,49.72
2023-01-27T22:58:37.534Z,49.69
2023-01-27T23:01:06.407Z,49.78
2023-01-27T23:03:34.345Z,49.78
2023-01-27T23:06:05.076Z,49.84
2023-01-27T23:08:32.987Z,49.79
2023-01-27T23:11:01.026Z,49.79
2023-01-27T23:13:28.916Z,49.82
2023-01-27T23:15:58.195Z,49.83
2023-01-27T23:18:26.258Z,49.74
2023-01-27T23:20:54.186Z,49.75
2023-01-27T23:23:23.274Z,49.68
2023-01-27T23:25:51.265Z,49.82
2023-01-27T23:28:19.482Z,49.80
2023-01-27T23:30:47.900Z,49.74
2023-01-27T23:33:17.443Z,49.80
2023-01-27T23:35:45.542Z,49.86
2023-01-27T23:38:30.369Z,49.96
2023-01-27T23:41:01.862Z,49.75
2023-01-27T23:43:30.959Z,50.06
2023-01-27T23:45:59.009Z,50.02
2023-01-27T23:48:28.458Z,49.92
2023-01-27T23:50:56.496Z,50.01
2023-01-27T23:53:24.395Z,50.14
2023-01-27T23:55:58.381Z,50.10
2023-01-27T23:58:26.573Z,50.08
